Time;durP1;ratioP1;P1;durP2;ratioP2;P2;SDS_P1;SDS_P2;PMS_P1;PMS_P2;Temp;Humidity;BMP_temperature;BMP_pressure;BME280_temperature;BME280_humidity;BME280_pressure;Samples;Min_cycle;Max_cycle;Signal;HPM_P1;HPM_P2
2024/01/12 00:00:35;;;;;;;;;;;-4.30;99.90;;;;;;20841879;28;19971;-76
2024/01/12 00:10:36;;;;;;;;;;;-4.40;99.90;;;;;;20840085;28;19944;-77
2024/01/12 00:20:42;;;;;;;;;;;-4.50;99.90;;;;;;20874086;28;19917;-76
2024/01/12 00:30:45;;;;;;;;;;;-4.30;99.90;;;;;;20861179;28;19917;-76
2024/01/12 00:40:45;;;;;;;;;;;-4.20;99.90;;;;;;20863512;28;20383;-76
2024/01/12 00:50:47;;;;;;;;;;;-4.10;99.90;;;;;;20877054;28;20083;-76
2024/01/12 01:00:47;;;;;;;;;;;-4.10;99.90;;;;;;20862730;28;19917;-75
2024/01/12 01:10:48;;;;;;;;;;;-4.10;99.90;;;;;;20860192;28;19964;-76
2024/01/12 01:20:49;;;;;;;;;;;-4.20;99.90;;;;;;20867982;28;19917;-78
2024/01/12 01:30:49;;;;;;;;;;;-4.10;99.90;;;;;;20859958;28;19957;-77
2024/01/12 01:40:50;;;;;;;;;;;-4.10;99.90;;;;;;20879312;28;20299;-76
2024/01/12 01:50:51;;;;;;;;;;;-4.00;99.90;;;;;;20849108;28;19917;-74
2024/01/12 02:00:52;;;;;;;;;;;-4.00;99.90;;;;;;20857633;28;19935;-76
2024/01/12 02:10:55;;;;;;;;;;;-4.00;99.90;;;;;;20846617;28;20343;-76
2024/01/12 02:20:59;;;;;;;;;;;-4.00;99.90;;;;;;20857193;28;20015;-77
2024/01/12 02:31:00;;;;;;;;;;;-4.00;99.90;;;;;;20858326;28;19924;-76
2024/01/12 02:41:00;;;;;;;;;;;-3.90;99.90;;;;;;20857392;28;20363;-76
2024/01/12 02:51:01;;;;;;;;;;;-3.80;99.90;;;;;;20871657;28;20384;-77
2024/01/12 03:01:02;;;;;;;;;;;-3.80;99.90;;;;;;20848463;28;19952;-76
2024/01/12 03:11:03;;;;;;;;;;;-3.70;99.90;;;;;;20862673;28;19924;-76
2024/01/12 03:21:04;;;;;;;;;;;-3.70;99.90;;;;;;20851045;28;19912;-76
2024/01/12 03:31:06;;;;;;;;;;;-3.70;99.90;;;;;;20863079;28;19917;-75
2024/01/12 03:41:07;;;;;;;;;;;-3.70;99.90;;;;;;20830853;28;20343;-75
2024/01/12 03:51:07;;;;;;;;;;;-3.70;99.90;;;;;;20857558;28;19959;-76
2024/01/12 04:01:08;;;;;;;;;;;-3.70;99.90;;;;;;20847297;28;19913;-76
2024/01/12 04:11:08;;;;;;;;;;;-3.50;99.90;;;;;;20866710;28;20292;-76
2024/01/12 04:21:09;;;;;;;;;;;-3.50;99.90;;;;;;20868888;28;19919;-76
2024/01/12 04:31:10;;;;;;;;;;;-3.50;99.90;;;;;;20879719;28;20273;-76
2024/01/12 04:41:10;;;;;;;;;;;-3.50;99.90;;;;;;20886684;28;19960;-77
2024/01/12 04:51:11;;;;;;;;;;;-3.50;99.90;;;;;;20912552;28;19959;-77
2024/01/12 05:01:12;;;;;;;;;;;-3.50;99.90;;;;;;20903458;28;20425;-77
2024/01/12 05:11:12;;;;;;;;;;;-3.70;99.90;;;;;;20892190;28;19917;-78
2024/01/12 05:21:13;;;;;;;;;;;-3.80;99.90;;;;;;20903176;28;19914;-76
2024/01/12 05:31:14;;;;;;;;;;;-3.70;99.90;;;;;;20894654;28;20421;-76
2024/01/12 05:41:15;;;;;;;;;;;-3.80;99.90;;;;;;20849621;28;19920;-74
2024/01/12 05:51:15;;;;;;;;;;;-3.80;99.90;;;;;;20882706;28;20376;-75
2024/01/12 06:01:16;;;;;;;;;;;-3.80;99.90;;;;;;20848212;28;19963;-76
2024/01/12 06:11:17;;;;;;;;;;;-3.80;99.90;;;;;;20896275;28;19927;-75
2024/01/12 06:21:18;;;;;;;;;;;-4.00;99.90;;;;;;20903843;28;19913;-74
2024/01/12 06:31:18;;;;;;;;;;;-4.00;99.90;;;;;;20893573;28;19948;-76
2024/01/12 06:41:19;;;;;;;;;;;-3.80;99.90;;;;;;20893868;28;19959;-76
2024/01/12 06:51:21;;;;;;;;;;;-3.90;99.90;;;;;;20861053;28;19917;-76
2024/01/12 07:01:22;;;;;;;;;;;-4.10;99.90;;;;;;20854243;28;19913;-75
2024/01/12 07:11:24;;;;;;;;;;;-4.20;99.90;;;;;;20851228;28;19924;-75
2024/01/12 07:21:24;;;;;;;;;;;-4.30;99.90;;;;;;20860719;28;19919;-76
2024/01/12 07:31:25;;;;;;;;;;;-4.30;99.90;;;;;;20849949;28;20391;-74
2024/01/12 07:41:26;;;;;;;;;;;-4.30;99.90;;;;;;20836230;28;19936;-74
2024/01/12 07:51:27;;;;;;;;;;;-4.30;99.90;;;;;;20871175;28;19917;-77
2024/01/12 08:01:28;;;;;;;;;;;-4.30;99.90;;;;;;20875797;28;19925;-75
2024/01/12 08:11:28;;;;;;;;;;;-4.30;99.90;;;;;;20882924;28;19917;-75
2024/01/12 08:21:29;;;;;;;;;;;-4.40;99.90;;;;;;20888061;28;20299;-76
2024/01/12 08:31:29;;;;;;;;;;;-4.20;99.90;;;;;;20880262;28;19921;-76
2024/01/12 08:41:30;;;;;;;;;;;-3.70;99.90;;;;;;20872406;28;19912;-74
2024/01/12 08:51:31;;;;;;;;;;;-3.60;99.90;;;;;;20920046;28;19917;-77
2024/01/12 09:01:32;;;;;;;;;;;-3.50;99.90;;;;;;20910527;28;19936;-77
2024/01/12 09:11:32;;;;;;;;;;;-3.20;99.90;;;;;;20917350;28;20090;-74
2024/01/12 09:21:33;;;;;;;;;;;-3.00;99.90;;;;;;20916367;28;19946;-77
2024/01/12 09:31:33;;;;;;;;;;;-3.10;99.90;;;;;;20915382;28;19925;-76
2024/01/12 09:41:38;;;;;;;;;;;-3.20;99.90;;;;;;20914886;28;19959;-76
2024/01/12 09:51:39;;;;;;;;;;;-3.20;99.90;;;;;;20913347;28;20346;-76
2024/01/12 10:01:41;;;;;;;;;;;-2.90;99.90;;;;;;20912061;28;19959;-75
2024/01/12 10:11:42;;;;;;;;;;;-2.80;99.90;;;;;;20909239;28;19916;-75
2024/01/12 10:21:42;;;;;;;;;;;-3.00;99.90;;;;;;20911316;28;19913;-76
2024/01/12 10:31:45;;;;;;;;;;;-3.00;99.90;;;;;;20911120;28;20175;-76
2024/01/12 10:41:46;;;;;;;;;;;-2.80;99.90;;;;;;20910270;28;19952;-76
2024/01/12 10:51:46;;;;;;;;;;;-2.50;99.90;;;;;;20901396;28;20016;-76
2024/01/12 11:01:48;;;;;;;;;;;-2.30;99.90;;;;;;20908011;28;20121;-76
2024/01/12 11:11:56;;;;;;;;;;;-2.20;99.90;;;;;;20907138;28;19916;-76
2024/01/12 11:22:05;;;;;;;;;;;-0.70;99.90;;;;;;20907060;28;20383;-76
2024/01/12 11:32:06;;;;;;;;;;;-1.30;99.90;;;;;;20906529;28;19917;-74
2024/01/12 11:42:07;;;;;;;;;;;-1.20;99.90;;;;;;20896885;28;20012;-77
2024/01/12 11:52:08;;;;;;;;;;;0.10;99.90;;;;;;20905785;28;20305;-75
2024/01/12 12:02:09;;;;;;;;;;;0.40;99.90;;;;;;20905338;28;19913;-72
2024/01/12 12:12:10;;;;;;;;;;;1.90;99.90;;;;;;20906633;28;19917;-75
2024/01/12 12:22:11;;;;;;;;;;;2.00;99.90;;;;;;20915882;28;19919;-76
2024/01/12 12:32:12;;;;;;;;;;;2.40;99.90;;;;;;20919659;28;19931;-76
2024/01/12 12:42:12;;;;;;;;;;;2.50;99.90;;;;;;20921110;28;20299;-76
2024/01/12 12:52:13;;;;;;;;;;;2.20;99.90;;;;;;20918565;28;19924;-75
2024/01/12 13:02:14;;;;;;;;;;;3.00;99.90;;;;;;20909739;28;19989;-75
2024/01/12 13:12:15;;;;;;;;;;;3.70;99.90;;;;;;20916604;28;19924;-76
2024/01/12 13:22:16;;;;;;;;;;;5.00;99.90;;;;;;20915950;28;19913;-74
2024/01/12 13:32:16;;;;;;;;;;;3.30;99.90;;;;;;20912930;28;19962;-76
2024/01/12 13:42:17;;;;;;;;;;;3.60;99.90;;;;;;20913352;28;19912;-76
2024/01/12 13:52:18;;;;;;;;;;;4.80;99.90;;;;;;20891943;28;19917;-76
2024/01/12 14:02:19;;;;;;;;;;;2.80;99.90;;;;;;20868825;28;20475;-75
2024/01/12 14:12:22;;;;;;;;;;;4.10;99.90;;;;;;20878308;28;20325;-74
2024/01/12 14:22:24;;;;;;;;;;;4.80;99.90;;;;;;20881760;28;19920;-74
2024/01/12 14:32:24;;;;;;;;;;;4.30;99.90;;;;;;20863325;28;19927;-75
2024/01/12 14:42:26;;;;;;;;;;;4.00;99.90;;;;;;20880031;28;19917;-74
2024/01/12 14:52:27;;;;;;;;;;;3.60;99.90;;;;;;20871825;28;20003;-74
2024/01/12 15:02:29;;;;;;;;;;;4.10;99.90;;;;;;20864360;28;20419;-74
2024/01/12 15:12:30;;;;;;;;;;;2.40;99.90;;;;;;20873919;28;19955;-75
2024/01/12 15:22:31;;;;;;;;;;;2.60;99.90;;;;;;20873498;28;19945;-74
2024/01/12 15:32:32;;;;;;;;;;;2.70;99.90;;;;;;20868506;28;19996;-76
2024/01/12 15:42:33;;;;;;;;;;;1.80;99.90;;;;;;20874803;28;19913;-76
2024/01/12 15:52:34;;;;;;;;;;;0.90;99.90;;;;;;20855915;28;20031;-76
2024/01/12 16:02:35;;;;;;;;;;;1.20;99.90;;;;;;20880192;28;20397;-76
2024/01/12 16:12:35;;;;;;;;;;;0.40;99.90;;;;;;20855634;28;20387;-76
2024/01/12 16:22:36;;;;;;;;;;;-0.20;99.90;;;;;;20865539;28;19920;-76
2024/01/12 16:32:37;;;;;;;;;;;-0.60;99.90;;;;;;20857368;28;20024;-76
2024/01/12 16:42:37;;;;;;;;;;;-0.50;99.90;;;;;;20857225;28;19921;-76
2024/01/12 16:52:39;;;;;;;;;;;-0.70;99.90;;;;;;20834896;28;20277;-76
2024/01/12 17:02:40;;;;;;;;;;;-1.20;99.90;;;;;;20872973;28;20379;-76
2024/01/12 17:12:44;;;;;;;;;;;-1.20;99.90;;;;;;20850476;28;20001;-75
2024/01/12 17:22:44;;;;;;;;;;;-1.60;99.90;;;;;;20873895;28;19913;-75
2024/01/12 17:32:45;;;;;;;;;;;-2.00;99.90;;;;;;20873375;28;19928;-75
2024/01/12 17:42:46;;;;;;;;;;;-2.10;99.90;;;;;;20881272;28;19912;-76
2024/01/12 17:52:46;;;;;;;;;;;-2.40;99.90;;;;;;20882201;28;20008;-75
2024/01/12 18:02:47;;;;;;;;;;;-2.70;99.90;;;;;;20855168;28;19961;-75
2024/01/12 18:12:48;;;;;;;;;;;-2.90;99.90;;;;;;20859070;28;19925;-77
2024/01/12 18:22:49;;;;;;;;;;;-3.30;99.90;;;;;;20847740;28;19963;-76
2024/01/12 18:32:49;;;;;;;;;;;-3.30;99.90;;;;;;20844839;28;20466;-78
2024/01/12 18:42:50;;;;;;;;;;;-3.20;99.90;;;;;;20878771;28;19929;-78
2024/01/12 18:52:50;;;;;;;;;;;-3.30;99.90;;;;;;20855471;28;19921;-79
2024/01/12 19:02:51;;;;;;;;;;;-3.30;99.90;;;;;;20847465;28;19913;-79
2024/01/12 19:12:52;;;;;;;;;;;-3.70;99.90;;;;;;20859009;28;19917;-77
2024/01/12 19:22:53;;;;;;;;;;;-3.90;99.90;;;;;;20875095;28;20460;-76
2024/01/12 19:32:54;;;;;;;;;;;-4.40;99.90;;;;;;20852588;28;19977;-78
2024/01/12 19:42:54;;;;;;;;;;;-4.30;99.90;;;;;;20852320;28;19920;-77
2024/01/12 19:52:56;;;;;;;;;;;-4.10;99.90;;;;;;20873752;28;19925;-76
2024/01/12 20:02:56;;;;;;;;;;;-4.30;99.90;;;;;;20868898;28;20642;-78
2024/01/12 20:12:58;;;;;;;;;;;-4.50;99.90;;;;;;20871897;28;20024;-78
2024/01/12 20:22:58;;;;;;;;;;;-4.40;99.90;;;;;;20850567;28;20047;-77
2024/01/12 20:32:59;;;;;;;;;;;-4.50;99.90;;;;;;20844300;28;19933;-77
2024/01/12 20:43:00;;;;;;;;;;;-4.60;99.90;;;;;;20855511;28;19924;-77
2024/01/12 20:53:01;;;;;;;;;;;-4.50;99.90;;;;;;20858698;28;19982;-76
2024/01/12 21:03:02;;;;;;;;;;;-4.40;99.90;;;;;;20862329;28;19917;-75
2024/01/12 21:13:03;;;;;;;;;;;-4.20;99.90;;;;;;20870190;28;20426;-74
2024/01/12 21:23:04;;;;;;;;;;;-3.70;99.90;;;;;;20877128;28;19917;-76
2024/01/12 21:33:04;;;;;;;;;;;-3.50;99.90;;;;;;20873015;28;19920;-76
2024/01/12 21:43:05;;;;;;;;;;;-3.50;99.90;;;;;;20871033;28;20007;-78
2024/01/12 21:53:06;;;;;;;;;;;-3.40;99.90;;;;;;20875254;28;19916;-77
2024/01/12 22:03:06;;;;;;;;;;;-3.10;99.90;;;;;;20856291;28;19920;-76
2024/01/12 22:13:07;;;;;;;;;;;-2.90;99.90;;;;;;20880070;28;20446;-76
2024/01/12 22:23:08;;;;;;;;;;;-2.90;99.90;;;;;;20859118;28;19970;-76
2024/01/12 22:33:09;;;;;;;;;;;-2.90;99.90;;;;;;20868951;28;20437;-76
2024/01/12 22:43:10;;;;;;;;;;;-2.90;99.90;;;;;;20831137;28;19916;-75
2024/01/12 22:53:11;;;;;;;;;;;-2.90;99.90;;;;;;20843602;28;19967;-74
2024/01/12 23:03:11;;;;;;;;;;;-3.00;99.90;;;;;;20850917;28;19920;-76
2024/01/12 23:13:12;;;;;;;;;;;-2.90;99.90;;;;;;20849731;28;19921;-75
2024/01/12 23:23:13;;;;;;;;;;;-2.90;99.90;;;;;;20848501;28;19967;-76
2024/01/12 23:33:15;;;;;;;;;;;-2.90;99.90;;;;;;20843943;28;19921;-74
2024/01/12 23:43:16;;;;;;;;;;;-2.80;99.90;;;;;;20851133;28;19920;-75
2024/01/12 23:53:16;;;;;;;;;;;-2.70;99.90;;;;;;20849255;28;19917;-74
